Agness, Oregon
Current Conditions -  °F | °C
As of 4:56 AM on Friday 24 Oct 2014 (Local Time) from KBOK Reporting Station
Light Rain Light Rain  
Wind Chill: 55°   Ceiling: Unl
Heat Index: 55°   Visibility: 7mi
Dew Point: 54°   Wind: 6mph
Humidity: 97%   Direction: 60°ENE
Pressure: 29.95"   Gusts: NA
Location:  42.56°N, 124.07°W
Report Text: KBOK 241156Z AUTO 06005KT 7SM -RA FEW030 SCT047 SCT060 13/12 A2995 RMK AO2 58020 60008 70059 T01270122 10138 20127 P0002 SLP142
Loading
Personal Weather Stations






























Interactive Weather Map
Tropical Storm Tracking
New forecast layout! Learn more

10-Day Weather Forecast

Advertisements
Track Severe Weather on mobile